createdAt,value
2019-04-23T00:02:53.455Z,4.40
2019-04-23T00:05:30.509Z,4.87
2019-04-23T00:08:07.843Z,4.20
2019-04-23T00:10:18.765Z,3.40
2019-04-23T00:17:38.875Z,2.62
2019-04-23T00:22:53.271Z,2.83
2019-04-23T00:28:16.168Z,2.40
2019-04-23T00:30:43.764Z,2.75
2019-04-23T00:33:07.493Z,2.42
2019-04-23T00:35:27.358Z,2.80
2019-04-23T00:38:02.227Z,2.40
2019-04-23T00:40:25.754Z,2.60
2019-04-23T00:42:49.652Z,2.80
2019-04-23T00:45:16.715Z,2.90
2019-04-23T00:47:46.579Z,3.02
2019-04-23T00:52:40.044Z,3.08
2019-04-23T00:55:12.844Z,3.45
2019-04-23T00:57:36.004Z,3.25
2019-04-23T01:00:10.703Z,3.45
2019-04-23T01:02:31.156Z,3.95
2019-04-23T01:05:05.108Z,4.00
2019-04-23T01:07:24.653Z,3.35
2019-04-23T01:12:31.880Z,3.42
2019-04-23T01:14:53.769Z,3.15
2019-04-23T01:17:30.337Z,2.55
2019-04-23T01:19:49.483Z,3.08
2019-04-23T01:22:00.109Z,2.70
2019-04-23T01:25:13.493Z,2.58
2019-04-23T01:28:02.406Z,2.87
2019-04-23T01:30:37.427Z,3.05
2019-04-23T01:33:05.922Z,3.20
2019-04-23T01:37:52.375Z,2.80
2019-04-23T01:40:30.397Z,2.72
2019-04-23T01:45:20.024Z,2.55
2019-04-23T01:47:50.092Z,2.87
2019-04-23T01:50:14.040Z,3.12
2019-04-23T01:52:50.546Z,3.17
2019-04-23T01:55:10.246Z,2.98
2019-04-23T01:57:40.896Z,3.15
2019-04-23T02:00:03.208Z,2.75
2019-04-23T02:02:39.324Z,2.80
2019-04-23T02:05:05.095Z,3.40
2019-04-23T02:07:29.579Z,2.98
2019-04-23T02:09:55.796Z,2.85
2019-04-23T02:12:19.223Z,3.00
2019-04-23T02:14:49.945Z,2.67
2019-04-23T02:17:36.241Z,2.83
2019-04-23T02:22:38.880Z,2.80
2019-04-23T02:25:38.140Z,2.70
2019-04-23T02:27:57.952Z,2.77
2019-04-23T02:30:40.060Z,2.87
2019-04-23T02:33:07.669Z,2.98
2019-04-23T02:35:46.668Z,2.70
2019-04-23T02:37:54.163Z,2.60
2019-04-23T02:42:59.368Z,2.90
2019-04-23T02:45:04.794Z,3.05
2019-04-23T02:47:38.348Z,3.12
2019-04-23T02:50:17.057Z,3.22
2019-04-23T02:52:38.694Z,3.15
2019-04-23T02:55:09.115Z,3.87
2019-04-23T02:57:18.634Z,3.72
2019-04-23T03:07:13.985Z,3.60
2019-04-23T03:12:14.696Z,3.50
2019-04-23T03:14:37.708Z,3.50
2019-04-23T03:19:52.348Z,2.92
2019-04-23T03:22:25.126Z,2.98
2019-04-23T03:25:11.934Z,2.67
2019-04-23T03:27:41.225Z,3.35
2019-04-23T03:30:06.126Z,3.50
2019-04-23T03:37:33.272Z,3.35
2019-04-23T03:39:56.645Z,3.00
2019-04-23T03:42:37.251Z,2.70
2019-04-23T03:44:49.691Z,2.92
2019-04-23T03:47:18.728Z,3.08
2019-04-23T03:49:41.176Z,2.70
2019-04-23T03:52:16.405Z,2.65
2019-04-23T03:54:39.038Z,2.80
2019-04-23T03:59:36.951Z,2.62
2019-04-23T04:02:15.484Z,2.83
2019-04-23T04:04:24.798Z,2.58
2019-04-23T04:09:28.673Z,2.47
2019-04-23T04:11:27.302Z,2.70
2019-04-23T04:16:47.038Z,3.20
2019-04-23T04:21:33.768Z,2.92
2019-04-23T04:24:22.535Z,3.37
2019-04-23T04:26:34.616Z,3.17
2019-04-23T04:31:25.769Z,3.25
2019-04-23T04:36:21.806Z,3.58
2019-04-23T04:41:13.437Z,3.98
2019-04-23T04:43:50.764Z,3.95
2019-04-23T04:48:41.756Z,3.95
2019-04-23T04:51:08.408Z,3.62
2019-04-23T04:53:47.740Z,3.08
2019-04-23T04:55:55.485Z,3.77
2019-04-23T04:58:25.651Z,4.42
2019-04-23T05:03:23.952Z,6.40
2019-04-23T05:15:36.999Z,4.42
2019-04-23T05:18:28.491Z,5.08
2019-04-23T05:21:12.518Z,4.42
2019-04-23T05:23:54.477Z,4.45
2019-04-23T05:26:11.092Z,4.60
2019-04-23T05:28:44.564Z,4.40
2019-04-23T05:31:02.489Z,4.20
2019-04-23T05:38:37.932Z,4.28
2019-04-23T05:41:01.593Z,5.37
2019-04-23T05:43:19.167Z,6.62
2019-04-23T05:45:49.579Z,6.50
2019-04-23T05:55:36.851Z,5.15
2019-04-23T05:58:00.524Z,5.12
2019-04-23T06:00:34.395Z,6.92
2019-04-23T06:03:04.861Z,6.90
2019-04-23T06:05:25.043Z,5.67
2019-04-23T06:10:23.421Z,5.35
2019-04-23T06:12:45.451Z,6.47
2019-04-23T06:15:14.108Z,7.20
2019-04-23T06:17:44.479Z,6.08
2019-04-23T06:20:11.429Z,6.28
2019-04-23T06:22:54.592Z,5.65
2019-04-23T06:25:33.851Z,5.35
2019-04-23T06:27:35.233Z,4.85
2019-04-23T06:29:57.739Z,5.55
2019-04-23T06:32:25.553Z,7.08
2019-04-23T06:34:54.632Z,7.92
2019-04-23T06:37:47.670Z,8.35
2019-04-23T06:39:48.310Z,11.60
2019-04-23T06:42:11.653Z,13.43
2019-04-23T06:44:54.956Z,12.28
2019-04-23T06:47:16.587Z,9.40
2019-04-23T06:49:47.316Z,9.28
2019-04-23T06:52:15.160Z,7.35
2019-04-23T06:54:42.553Z,6.80
2019-04-23T06:57:15.104Z,5.75
2019-04-23T06:59:34.047Z,6.53
2019-04-23T07:02:09.965Z,7.70
2019-04-23T07:07:13.644Z,6.67
2019-04-23T07:09:13.717Z,6.80
2019-04-23T07:14:12.462Z,6.10
2019-04-23T07:16:57.042Z,6.97
2019-04-23T07:19:18.616Z,6.75
2019-04-23T07:21:35.590Z,6.80
2019-04-23T07:24:08.607Z,6.67
2019-04-23T07:26:34.892Z,6.50
2019-04-23T07:29:15.901Z,6.35
2019-04-23T07:31:59.291Z,6.45
2019-04-23T07:33:57.667Z,6.53
2019-04-23T07:41:45.471Z,5.35
2019-04-23T07:44:21.077Z,5.53
2019-04-23T07:46:52.763Z,5.30
2019-04-23T07:49:10.166Z,5.50
2019-04-23T07:51:36.840Z,5.67
2019-04-23T07:54:08.064Z,5.83
2019-04-23T07:56:35.859Z,5.15
2019-04-23T07:59:07.440Z,6.50
2019-04-23T08:01:32.013Z,6.33
2019-04-23T08:03:57.667Z,6.97
2019-04-23T08:06:17.384Z,6.42
2019-04-23T08:08:48.790Z,6.80
2019-04-23T08:13:53.526Z,6.25
2019-04-23T08:16:25.993Z,7.00
2019-04-23T08:18:45.369Z,7.35
2019-04-23T08:21:13.144Z,9.75
2019-04-23T08:23:58.683Z,8.13
2019-04-23T08:27:04.282Z,7.30
2019-04-23T08:31:50.397Z,6.12
2019-04-23T08:34:25.567Z,6.60
2019-04-23T08:39:10.272Z,6.87
2019-04-23T08:41:46.313Z,7.55
2019-04-23T08:44:15.630Z,7.17
2019-04-23T08:47:15.822Z,7.28
2019-04-23T08:49:29.681Z,7.00
2019-04-23T08:54:25.334Z,8.28
2019-04-23T08:56:50.004Z,7.28
2019-04-23T08:59:22.505Z,6.90
2019-04-23T09:01:51.028Z,6.42
2019-04-23T09:04:09.811Z,6.25
2019-04-23T09:06:36.606Z,7.35
2019-04-23T09:08:58.544Z,7.53
2019-04-23T09:11:43.469Z,7.15
2019-04-23T09:16:27.360Z,7.08
2019-04-23T09:18:54.390Z,7.25
2019-04-23T09:23:46.763Z,7.00
2019-04-23T09:26:07.894Z,6.92
2019-04-23T09:28:47.375Z,7.08
2019-04-23T09:31:24.858Z,6.83
2019-04-23T09:36:58.172Z,7.25
2019-04-23T09:39:37.702Z,7.87
2019-04-23T09:42:28.000Z,7.40
2019-04-23T09:47:46.090Z,7.87
2019-04-23T09:50:10.794Z,7.78
2019-04-23T09:52:43.152Z,7.70
2019-04-23T09:57:36.300Z,7.72
2019-04-23T10:00:02.142Z,7.22
2019-04-23T10:02:19.332Z,7.85
2019-04-23T10:04:41.118Z,7.92
2019-04-23T10:07:05.407Z,8.50
2019-04-23T10:09:22.741Z,7.40
2019-04-23T10:11:49.285Z,7.50
2019-04-23T10:14:14.864Z,7.60
2019-04-23T10:16:41.336Z,7.53
2019-04-23T10:19:08.026Z,8.10
2019-04-23T10:21:35.195Z,7.95
2019-04-23T10:24:01.461Z,8.15
2019-04-23T10:26:28.203Z,7.78
2019-04-23T10:29:02.339Z,7.87
2019-04-23T10:31:27.947Z,8.23
2019-04-23T10:33:53.538Z,8.25
2019-04-23T10:36:21.940Z,7.72
2019-04-23T10:38:51.553Z,8.10
2019-04-23T10:41:14.204Z,9.08
2019-04-23T10:43:42.516Z,8.75
2019-04-23T10:46:39.455Z,8.73
2019-04-23T10:49:49.837Z,9.38
2019-04-23T10:56:59.955Z,7.30
2019-04-23T10:59:38.831Z,8.45
2019-04-23T11:02:26.802Z,7.72
2019-04-23T11:07:05.291Z,8.35
2019-04-23T11:09:47.001Z,8.05
2019-04-23T11:12:12.345Z,8.38
2019-04-23T11:14:31.019Z,8.98
2019-04-23T11:19:34.682Z,11.57
2019-04-23T11:24:32.392Z,9.68
2019-04-23T11:29:20.939Z,8.33
2019-04-23T11:34:26.594Z,7.65
2019-04-23T11:39:05.573Z,6.67
2019-04-23T11:42:06.623Z,7.62
2019-04-23T11:44:09.821Z,7.92
2019-04-23T11:46:50.655Z,8.68
2019-04-23T11:49:22.537Z,8.58
2019-04-23T11:56:36.682Z,6.42
2019-04-23T12:01:44.746Z,6.72
2019-04-23T12:04:14.679Z,6.75
2019-04-23T12:06:52.750Z,7.72
2019-04-23T12:17:26.335Z,6.92
2019-04-23T12:22:13.139Z,7.28
2019-04-23T12:24:58.202Z,7.20
2019-04-23T12:27:09.651Z,7.33
2019-04-23T12:29:33.784Z,7.65
2019-04-23T12:37:33.444Z,7.47
2019-04-23T12:40:03.310Z,7.47
2019-04-23T12:42:41.587Z,7.80
2019-04-23T12:44:56.418Z,7.80
2019-04-23T12:47:25.446Z,8.30
2019-04-23T12:50:05.439Z,7.83
2019-04-23T12:52:12.933Z,7.08
2019-04-23T12:57:12.382Z,6.42
2019-04-23T12:59:36.677Z,6.75
2019-04-23T13:02:11.396Z,7.30
2019-04-23T13:04:32.242Z,7.25
2019-04-23T13:07:00.411Z,7.17
2019-04-23T13:09:41.784Z,6.85
2019-04-23T13:11:50.093Z,6.35
2019-04-23T13:14:29.539Z,7.28
2019-04-23T13:16:54.097Z,7.53
2019-04-23T13:19:28.007Z,7.30
2019-04-23T13:21:57.835Z,6.28
2019-04-23T13:24:33.045Z,6.83
2019-04-23T13:27:04.141Z,6.85
2019-04-23T13:29:37.720Z,7.10
2019-04-23T13:32:00.829Z,6.95
2019-04-23T13:34:31.620Z,6.90
2019-04-23T13:36:53.914Z,7.40
2019-04-23T13:39:29.081Z,6.60
2019-04-23T13:41:48.328Z,7.10
2019-04-23T13:44:15.775Z,6.87
2019-04-23T13:46:45.331Z,6.62
2019-04-23T13:49:10.907Z,6.62
2019-04-23T13:54:13.772Z,7.35
2019-04-23T13:59:16.529Z,6.60
2019-04-23T14:01:32.373Z,6.42
2019-04-23T14:04:04.100Z,6.28
2019-04-23T14:09:01.876Z,7.45
2019-04-23T14:13:56.720Z,6.55
2019-04-23T14:16:34.414Z,6.47
2019-04-23T14:18:58.500Z,6.10
2019-04-23T14:21:30.862Z,6.65
2019-04-23T14:24:02.935Z,7.05
2019-04-23T14:28:41.841Z,7.45
2019-04-23T14:33:46.641Z,7.00
2019-04-23T14:46:34.386Z,5.97
2019-04-23T14:48:51.691Z,6.87
2019-04-23T14:54:03.087Z,7.17
2019-04-23T14:56:16.117Z,6.03
2019-04-23T14:58:42.503Z,6.20
2019-04-23T15:03:44.441Z,6.33
2019-04-23T15:06:12.165Z,5.75
2019-04-23T15:08:31.230Z,5.55
2019-04-23T15:11:19.211Z,12.93
2019-04-23T15:13:22.760Z,6.25
2019-04-23T15:15:56.555Z,5.97
2019-04-23T15:18:35.328Z,5.40
2019-04-23T15:21:28.330Z,5.45
2019-04-23T15:26:47.860Z,5.62
2019-04-23T15:27:35.964Z,6.33
2019-04-23T15:28:07.735Z,7.45
2019-04-23T15:30:59.073Z,5.55
2019-04-23T15:33:31.623Z,5.50
2019-04-23T15:36:04.356Z,6.03
2019-04-23T15:38:36.025Z,6.60
2019-04-23T15:40:43.739Z,5.58
2019-04-23T15:43:10.402Z,6.17
2019-04-23T15:45:42.367Z,5.50
2019-04-23T15:48:11.868Z,5.15
2019-04-23T15:50:35.693Z,5.70
2019-04-23T15:52:58.845Z,5.53
2019-04-23T15:55:44.063Z,5.40
2019-04-23T15:58:07.796Z,5.60
2019-04-23T16:00:17.844Z,5.35
2019-04-23T16:02:19.865Z,5.40
2019-04-23T16:04:46.900Z,4.92
2019-04-23T16:07:30.994Z,5.25
2019-04-23T16:10:15.999Z,5.25
2019-04-23T16:12:36.000Z,5.30
2019-04-23T16:15:11.437Z,4.70
2019-04-23T16:17:37.821Z,5.10
2019-04-23T16:20:18.422Z,5.50
2019-04-23T16:22:36.936Z,5.22
2019-04-23T16:25:06.765Z,6.10
2019-04-23T16:27:27.378Z,5.28
2019-04-23T16:30:12.785Z,4.75
2019-04-23T16:35:17.945Z,5.17
2019-04-23T16:37:53.093Z,5.30
2019-04-23T16:42:40.075Z,5.65
2019-04-23T16:45:11.001Z,5.60
2019-04-23T16:47:28.637Z,5.30
2019-04-23T16:52:47.984Z,4.90
2019-04-23T16:54:54.753Z,5.03
2019-04-23T17:00:02.891Z,5.33
2019-04-23T17:02:34.388Z,5.00
2019-04-23T17:07:07.034Z,5.37
2019-04-23T17:09:42.771Z,5.50
2019-04-23T17:12:09.113Z,5.00
2019-04-23T17:14:33.823Z,5.33
2019-04-23T17:16:53.669Z,4.92
2019-04-23T17:19:33.310Z,5.95
2019-04-23T17:22:01.196Z,5.40
2019-04-23T17:26:54.256Z,5.37
2019-04-23T17:29:26.824Z,5.33
2019-04-23T17:31:59.056Z,4.40
2019-04-23T17:34:32.556Z,5.08
2019-04-23T17:37:10.455Z,5.58
2019-04-23T17:40:04.630Z,5.15
2019-04-23T17:42:25.564Z,5.60
2019-04-23T17:45:07.982Z,5.58
2019-04-23T17:47:51.685Z,5.37
2019-04-23T17:50:25.121Z,5.33
2019-04-23T17:52:51.054Z,5.40
2019-04-23T17:57:43.683Z,5.53
2019-04-23T18:02:59.131Z,5.33
2019-04-23T18:05:10.789Z,5.42
2019-04-23T18:10:27.495Z,5.65
2019-04-23T18:12:43.862Z,5.55
2019-04-23T18:15:11.547Z,4.87
2019-04-23T18:17:45.339Z,5.00
2019-04-23T18:20:21.260Z,5.72
2019-04-23T18:23:04.816Z,5.03
2019-04-23T18:25:30.895Z,5.47
2019-04-23T18:27:57.910Z,5.53
2019-04-23T18:30:51.118Z,5.70
2019-04-23T18:33:49.760Z,5.92
2019-04-23T18:35:42.762Z,5.55
2019-04-23T18:38:18.719Z,6.30
2019-04-23T18:41:01.254Z,5.05
2019-04-23T18:43:20.650Z,5.72
2019-04-23T18:48:41.620Z,5.40
2019-04-23T18:53:35.222Z,5.83
2019-04-23T18:58:09.568Z,5.30
2019-04-23T19:00:53.699Z,5.25
2019-04-23T19:03:37.337Z,5.40
2019-04-23T19:11:54.919Z,5.37
2019-04-23T19:14:08.058Z,5.15
2019-04-23T19:16:41.887Z,4.92
2019-04-23T19:19:01.479Z,5.97
2019-04-23T19:21:57.525Z,5.75
2019-04-23T19:23:54.713Z,5.50
2019-04-23T19:26:55.179Z,5.45
2019-04-23T19:28:55.541Z,5.62
2019-04-23T19:31:53.259Z,6.00
2019-04-23T19:36:49.067Z,5.80
2019-04-23T19:44:11.336Z,5.62
2019-04-23T19:46:52.300Z,6.30
2019-04-23T19:51:35.698Z,6.83
2019-04-23T19:54:09.509Z,6.67
2019-04-23T19:56:43.502Z,6.58
2019-04-23T19:58:56.792Z,7.40
2019-04-23T20:01:21.044Z,7.30
2019-04-23T20:03:52.474Z,6.50
2019-04-23T20:11:29.632Z,6.58
2019-04-23T20:13:52.587Z,6.50
2019-04-23T20:16:23.266Z,6.33
2019-04-23T20:18:57.695Z,6.50
2019-04-23T20:21:13.491Z,6.20
2019-04-23T20:29:14.044Z,6.55
2019-04-23T20:33:16.980Z,6.60
2019-04-23T20:36:46.262Z,6.12
2019-04-23T20:39:16.334Z,6.15
2019-04-23T20:44:35.665Z,6.80
2019-04-23T20:47:03.364Z,7.97
2019-04-23T20:49:23.624Z,7.42
2019-04-23T20:51:50.168Z,9.20
2019-04-23T20:54:18.330Z,7.42
2019-04-23T20:56:51.724Z,8.70
2019-04-23T20:59:34.298Z,8.93
2019-04-23T21:02:18.155Z,9.13
2019-04-23T21:04:54.800Z,8.68
2019-04-23T21:07:07.267Z,8.10
2019-04-23T21:09:53.119Z,7.78
2019-04-23T21:12:04.149Z,7.50
2019-04-23T21:14:48.728Z,7.15
2019-04-23T21:16:54.678Z,7.87
2019-04-23T21:19:32.689Z,7.53
2019-04-23T21:22:13.275Z,8.08
2019-04-23T21:24:35.066Z,7.62
2019-04-23T21:27:17.197Z,7.05
2019-04-23T21:29:44.901Z,6.97
2019-04-23T21:32:06.978Z,6.83
2019-04-23T21:34:40.635Z,6.90
2019-04-23T21:36:58.669Z,7.72
2019-04-23T21:39:47.656Z,7.67
2019-04-23T21:42:09.660Z,8.08
2019-04-23T21:44:25.191Z,8.55
2019-04-23T21:54:22.981Z,6.55
2019-04-23T21:56:47.026Z,6.70
2019-04-23T22:01:53.421Z,6.30
2019-04-23T22:04:38.148Z,6.00
2019-04-23T22:06:49.349Z,6.15
2019-04-23T22:14:19.599Z,6.25
2019-04-23T22:16:40.959Z,5.42
2019-04-23T22:19:10.693Z,5.80
2019-04-23T22:21:36.163Z,6.15
2019-04-23T22:24:05.575Z,6.12
2019-04-23T22:28:57.979Z,5.42
2019-04-23T22:31:18.846Z,6.15
2019-04-23T22:36:15.140Z,5.58
2019-04-23T22:38:43.493Z,6.10
2019-04-23T22:41:10.559Z,7.15
2019-04-23T22:43:43.076Z,5.75
2019-04-23T22:46:07.948Z,6.50
2019-04-23T22:48:34.217Z,5.72
2019-04-23T22:53:30.377Z,5.60
2019-04-23T22:56:01.871Z,6.58
2019-04-23T22:58:32.397Z,6.45
2019-04-23T23:01:14.646Z,7.10
2019-04-23T23:06:10.665Z,6.33
2019-04-23T23:08:21.184Z,6.08
2019-04-23T23:13:20.766Z,5.70
2019-04-23T23:20:46.481Z,6.12
2019-04-23T23:23:13.070Z,5.90
2019-04-23T23:25:39.694Z,5.80
2019-04-23T23:30:52.113Z,6.40
2019-04-23T23:33:13.299Z,6.10
2019-04-23T23:35:27.681Z,6.00
2019-04-23T23:38:05.426Z,5.90
2019-04-23T23:40:26.962Z,5.97
2019-04-23T23:43:06.013Z,6.17
2019-04-23T23:45:31.534Z,5.92
2019-04-23T23:47:56.068Z,6.25
2019-04-23T23:50:22.729Z,6.10
2019-04-23T23:52:48.805Z,6.58
2019-04-23T23:57:48.306Z,6.00
